createdAt,value
2019-05-10T00:01:37.925Z,11.18
2019-05-10T00:15:11.795Z,10.10
2019-05-10T00:17:46.394Z,11.02
2019-05-10T00:20:20.589Z,10.98
2019-05-10T00:22:56.033Z,10.92
2019-05-10T00:25:31.041Z,10.95
2019-05-10T00:28:04.951Z,10.90
2019-05-10T00:41:23.686Z,10.87
2019-05-10T00:44:14.765Z,10.73
2019-05-10T00:46:48.858Z,10.69
2019-05-10T01:00:09.856Z,10.74
2019-05-10T01:02:58.050Z,10.76
2019-05-10T01:05:31.727Z,10.71
2019-05-10T01:08:05.587Z,10.70
2019-05-10T01:10:52.257Z,10.83
2019-05-10T01:13:29.406Z,10.83
2019-05-10T01:16:03.281Z,10.79
2019-05-10T01:18:37.405Z,10.81
2019-05-10T01:21:22.665Z,10.86
2019-05-10T01:24:15.005Z,10.84
2019-05-10T01:26:49.652Z,10.83
2019-05-10T01:29:35.053Z,10.85
2019-05-10T01:32:20.883Z,10.86
2019-05-10T01:34:59.900Z,10.76
2019-05-10T01:37:33.942Z,10.75
2019-05-10T01:40:18.607Z,10.76
2019-05-10T01:42:52.521Z,10.66
2019-05-10T01:45:26.382Z,10.65
2019-05-10T01:48:15.289Z,10.66
2019-05-10T01:51:14.042Z,10.63
2019-05-10T01:53:47.946Z,10.57
2019-05-10T01:56:21.577Z,10.57
2019-05-10T01:58:57.253Z,10.63
2019-05-10T02:01:31.729Z,10.58
2019-05-10T02:04:05.526Z,10.57
2019-05-10T02:06:39.319Z,10.57
2019-05-10T02:09:13.256Z,10.64
2019-05-10T02:11:47.538Z,10.73
2019-05-10T02:14:21.645Z,10.83
2019-05-10T02:16:55.743Z,10.87
2019-05-10T02:19:41.776Z,10.95
2019-05-10T02:22:43.230Z,10.81
2019-05-10T02:35:58.000Z,10.88
2019-05-10T02:38:56.848Z,10.89
2019-05-10T02:52:05.345Z,11.02
2019-05-10T03:05:52.045Z,10.71
2019-05-10T04:11:55.391Z,10.46
2019-05-10T04:30:33.494Z,10.52
2019-05-10T04:33:07.733Z,10.53
2019-05-10T04:35:53.082Z,10.62
2019-05-10T04:38:27.223Z,10.60
2019-05-10T04:41:01.506Z,10.63
2019-05-10T04:43:35.368Z,10.66
2019-05-10T04:59:45.053Z,10.72
2019-05-10T05:02:22.222Z,10.71
2019-05-10T05:04:55.326Z,10.74
2019-05-10T05:07:33.654Z,10.76
2019-05-10T05:10:18.671Z,10.79
2019-05-10T05:12:51.785Z,10.81
2019-05-10T05:15:25.163Z,10.82
2019-05-10T05:18:05.453Z,10.82
2019-05-10T05:20:42.555Z,10.82
2019-05-10T05:24:16.859Z,10.89
2019-05-10T05:26:47.651Z,10.82
2019-05-10T05:29:22.218Z,10.80
2019-05-10T05:32:00.962Z,10.80
2019-05-10T05:34:31.382Z,10.78
2019-05-10T05:37:04.681Z,10.78
2019-05-10T05:39:39.336Z,10.83
2019-05-10T05:42:12.736Z,10.81
2019-05-10T05:55:45.991Z,10.28
2019-05-10T07:08:57.073Z,11.68
2019-05-10T07:11:50.509Z,11.53
2019-05-10T07:14:27.152Z,11.64
2019-05-10T07:17:03.032Z,11.79
2019-05-10T07:19:41.594Z,11.95
2019-05-10T07:22:26.284Z,11.97
2019-05-10T07:24:57.148Z,12.05
2019-05-10T07:27:30.125Z,12.11
2019-05-10T07:30:03.152Z,12.23
2019-05-10T07:32:35.395Z,12.39
2019-05-10T07:35:08.914Z,12.53
2019-05-10T07:37:40.921Z,12.48
2019-05-10T07:40:15.031Z,12.63
2019-05-10T07:43:24.703Z,12.63
2019-05-10T07:46:09.015Z,12.83
2019-05-10T07:48:47.318Z,13.00
2019-05-10T07:51:39.279Z,13.20
2019-05-10T07:54:12.846Z,13.12
2019-05-10T07:56:47.928Z,13.22
2019-05-10T07:59:27.971Z,13.14
2019-05-10T08:01:57.759Z,13.13
2019-05-10T08:04:33.799Z,13.02
2019-05-10T08:07:10.514Z,13.01
2019-05-10T08:09:46.763Z,13.16
2019-05-10T08:12:41.539Z,13.46
2019-05-10T08:15:13.313Z,13.58
2019-05-10T08:17:50.499Z,13.88
2019-05-10T08:20:41.080Z,14.00
2019-05-10T08:22:56.435Z,13.88
2019-05-10T08:25:36.392Z,13.62
2019-05-10T08:28:06.112Z,13.10
2019-05-10T08:30:53.640Z,12.66
2019-05-10T08:33:32.805Z,12.62
2019-05-10T09:23:29.576Z,10.75
2019-05-10T09:26:10.108Z,10.59
2019-05-10T09:28:37.517Z,10.49
2019-05-10T10:09:07.281Z,11.02
2019-05-10T10:11:40.189Z,10.98
2019-05-10T10:14:14.248Z,10.98
2019-05-10T10:16:57.810Z,10.89
2019-05-10T11:12:21.078Z,12.65
2019-05-10T11:14:50.708Z,12.74
2019-05-10T15:39:49.345Z,13.39
2019-05-10T15:42:22.190Z,13.56
2019-05-10T15:45:05.219Z,13.71
2019-05-10T15:47:50.142Z,13.69
2019-05-10T15:50:14.712Z,13.43
2019-05-10T15:52:50.964Z,13.12
2019-05-10T15:55:27.012Z,12.95
2019-05-10T15:58:00.223Z,12.83
2019-05-10T16:00:53.810Z,12.84
2019-05-10T16:38:03.871Z,12.76
2019-05-10T16:40:37.557Z,12.98
2019-05-10T16:43:13.519Z,13.04
2019-05-10T16:45:44.421Z,13.36
2019-05-10T16:48:17.664Z,13.22
2019-05-10T17:02:15.221Z,13.54
2019-05-10T17:04:55.978Z,13.35
2019-05-10T17:07:29.040Z,13.02
2019-05-10T17:10:13.346Z,12.90
2019-05-10T17:12:47.363Z,12.76
2019-05-10T17:15:19.309Z,12.64
2019-05-10T17:17:53.436Z,12.69
2019-05-10T17:20:27.002Z,12.65
2019-05-10T17:34:05.632Z,12.93
2019-05-10T17:48:57.728Z,12.50
2019-05-10T17:51:39.967Z,12.56
2019-05-10T17:54:13.519Z,12.43
2019-05-10T17:56:47.099Z,12.29
2019-05-10T17:59:21.013Z,12.22
2019-05-10T18:01:55.256Z,12.14
2019-05-10T18:04:28.752Z,12.14
2019-05-10T18:07:01.977Z,12.14
2019-05-10T18:09:44.938Z,11.96
2019-05-10T18:12:30.290Z,11.92
2019-05-10T18:15:04.934Z,11.86
2019-05-10T18:17:38.784Z,11.86
2019-05-10T18:20:12.661Z,11.72
2019-05-10T18:22:45.854Z,11.64
2019-05-10T18:25:22.107Z,11.56
2019-05-10T18:27:55.286Z,11.38
2019-05-10T18:30:29.092Z,11.34
2019-05-10T18:33:06.675Z,11.25
2019-05-10T18:35:53.026Z,11.25
2019-05-10T18:38:24.592Z,11.13
2019-05-10T18:41:10.087Z,11.14
2019-05-10T18:43:42.907Z,11.02
2019-05-10T18:46:28.343Z,11.01
2019-05-10T18:49:01.932Z,10.96
2019-05-10T18:51:35.237Z,10.88
2019-05-10T18:54:08.853Z,10.77
2019-05-10T18:56:42.361Z,10.66
2019-05-10T18:59:16.949Z,10.58
2019-05-10T21:41:58.617Z,7.32
2019-05-10T21:44:33.391Z,7.26
2019-05-10T21:47:18.895Z,7.24
2019-05-10T21:49:53.679Z,7.07
2019-05-10T21:52:28.102Z,7.06
2019-05-10T21:55:03.433Z,7.01
2019-05-10T21:57:56.491Z,7.19
2019-05-10T22:00:45.301Z,7.23
2019-05-10T22:03:20.299Z,7.11
2019-05-10T22:05:59.260Z,7.04
2019-05-10T22:08:49.136Z,7.01
2019-05-10T22:11:27.047Z,7.05
2019-05-10T22:14:05.382Z,6.94
2019-05-10T22:16:42.066Z,6.82
2019-05-10T22:19:14.834Z,6.89
2019-05-10T22:21:48.927Z,6.88
2019-05-10T22:24:24.722Z,6.81
2019-05-10T22:27:03.733Z,6.70
2019-05-10T22:29:37.828Z,6.59
2019-05-10T22:32:12.159Z,6.42
2019-05-10T22:34:46.594Z,6.38
2019-05-10T22:37:20.831Z,6.25
2019-05-10T22:40:03.779Z,6.27
2019-05-10T22:42:46.078Z,6.25
2019-05-10T22:45:22.354Z,6.21
2019-05-10T22:47:57.917Z,6.26
2019-05-10T22:50:31.853Z,6.29
2019-05-10T22:53:08.072Z,6.27
2019-05-10T22:55:42.790Z,6.13
2019-05-10T22:58:38.902Z,6.23
2019-05-10T23:01:14.482Z,6.20
2019-05-10T23:03:49.227Z,6.08
2019-05-10T23:06:23.354Z,5.93
2019-05-10T23:08:57.394Z,5.80
2019-05-10T23:11:42.863Z,5.77
2019-05-10T23:14:31.327Z,5.82
2019-05-10T23:17:04.691Z,5.83
2019-05-10T23:19:42.383Z,5.86
2019-05-10T23:22:16.312Z,5.84
2019-05-10T23:24:50.242Z,5.79
2019-05-10T23:27:24.710Z,5.75
2019-05-10T23:30:07.324Z,5.79
2019-05-10T23:32:50.280Z,5.79
2019-05-10T23:35:33.402Z,5.76
2019-05-10T23:38:07.605Z,5.71
2019-05-10T23:40:42.008Z,5.77
2019-05-10T23:43:16.309Z,5.76
2019-05-10T23:45:49.972Z,5.76
2019-05-10T23:48:23.936Z,5.76
2019-05-10T23:51:07.015Z,5.79
2019-05-10T23:53:49.970Z,5.89
2019-05-10T23:56:23.631Z,5.85
2019-05-10T23:58:57.608Z,5.86
